Monday, April 24, 2017, 4:53 PM EDT
Back to Local

KAGC, Pittsburgh Allegheny Cty.

Location: West Mifflin, PA, United States Lat: 40.35
Local Time: 4:53 PM EDT (20:53 GMT) Lon: -79.917
Time Zone: US/Eastern Elev: 1253 ft

Show me the last for .
Show Decoded

2017-04-24 15:53 METAR KAGC 241953Z 08009KT 10SM BKN080 OVC090 14/03 A3000 RMK AO2 SLP165
                 T01440028 =
2017-04-24 14:53 METAR KAGC 241853Z 07011G17KT 030V090 10SM BKN080 OVC090 15/03 A3002 RMK AO2
                 SLP170 T01500028 =
2017-04-24 13:53 METAR KAGC 241753Z 12013KT 10SM OVC095 16/03 A3003 RMK AO2 RAB10E32 SLP172 P0000
                 60000 T01560033 10156 20094 55002 =
2017-04-24 12:53 METAR KAGC 241653Z 08008G20KT 10SM OVC090 15/04 A3003 RMK AO2 SLP171 T01500044 =
2017-04-24 11:53 METAR KAGC 241553Z 09011G19KT 10SM OVC100 15/06 A3003 RMK AO2 SLP173 T01500056 =
2017-04-24 10:53 METAR KAGC 241453Z 10012KT 10SM CLR 14/04 A3003 RMK AO2 SLP173 T01440039 51003 =
2017-04-24 09:53 METAR KAGC 241353Z 09010KT 10SM BKN100 13/03 A3003 RMK AO2 SLP170 T01280028 =
2017-04-24 08:53 METAR KAGC 241253Z VRB05KT 10SM CLR 11/02 A3003 RMK AO2 SLP174 T01060022 =
2017-04-24 07:53 METAR KAGC 241153Z 02003KT 10SM CLR 09/02 A3002 RMK AO2 SLP170 T00940017 10117
                 20083 53007 =
2017-04-24 06:53 METAR KAGC 241053Z 12005KT 10SM CLR 09/01 A3001 RMK AO2 SLP164 T00940006 =
2017-04-24 05:53 METAR KAGC 240953Z 08005KT 10SM CLR 09/00 A3001 RMK AO2 SLP165 T00890000 =
2017-04-24 04:53 METAR KAGC 240853Z 06004KT 10SM CLR 09/00 A3000 RMK AO2 SLP163 T00890000 58008 =
2017-04-24 03:53 METAR KAGC 240753Z AUTO 03004KT 10SM CLR 09/M01 A3001 RMK AO2 SLP165 T00941006 =
2017-04-24 02:53 METAR KAGC 240653Z AUTO 13003KT 10SM CLR 10/M01 A3002 RMK AO2 SLP168 T01001006 =
2017-04-24 01:53 METAR KAGC 240553Z AUTO 13007KT 10SM CLR 12/M02 A3003 RMK AO2 SLP171 T01171022
                 10172 20111 58005 =
2017-04-24 00:53 METAR KAGC 240453Z AUTO 14006KT 10SM CLR 12/M02 A3004 RMK AO2 SLP176 T01221022
                 401940033 =
2017-04-23 23:53 METAR KAGC 240353Z AUTO 15007KT 10SM CLR 13/M03 A3003 RMK AO2 SLP174 T01281028 =
2017-04-23 22:53 METAR KAGC 240253Z AUTO 13005KT 10SM CLR 14/M04 A3004 RMK AO2 SLP177 T01441039
                 51008 =
2017-04-23 21:53 METAR KAGC 240153Z 13005KT 10SM CLR 16/M04 A3004 RMK AO2 SLP176 T01561039 =
2017-04-23 20:53 METAR KAGC 240053Z 11005KT 10SM CLR 16/M03 A3002 RMK AO2 SLP171 T01611033 =
2017-04-23 19:53 METAR KAGC 232353Z 11005KT 10SM CLR 17/M03 A3001 RMK AO2 SLP169 T01721033 10194
                 20167 53003 =
2017-04-23 18:53 METAR KAGC 232253Z 11003KT 10SM CLR 19/M02 A3001 RMK AO2 SLP166 T01891017 =
2017-04-23 17:53 METAR KAGC 232153Z 12005KT 10SM CLR 19/M02 A3001 RMK AO2 SLP168 T01891017 =

Support USWX by starting your Amazon purchase here.